Time;durP1;ratioP1;P1;durP2;ratioP2;P2;SDS_P1;SDS_P2;PMS_P1;PMS_P2;Temp;Humidity;BMP_temperature;BMP_pressure;BME280_temperature;BME280_humidity;BME280_pressure;Samples;Min_cycle;Max_cycle;Signal;HPM_P1;HPM_P2
2023/07/10 00:01:39;;;;;;;5.90;4.53;;;;;;;;;;5144179;27;20391;-70
2023/07/10 00:04:13;;;;;;;7.10;4.72;;;;;;;;;;5144536;27;20218;-70
2023/07/10 00:06:41;;;;;;;6.90;4.30;;;;;;;;;;5144893;27;20200;-70
2023/07/10 00:09:07;;;;;;;7.55;4.30;;;;;;;;;;5144702;27;20416;-70
2023/07/10 00:11:33;;;;;;;7.35;4.50;;;;;;;;;;5144297;27;20194;-70
2023/07/10 00:14:00;;;;;;;4.78;4.15;;;;;;;;;;5144487;27;20193;-70
2023/07/10 00:16:26;;;;;;;4.88;4.25;;;;;;;;;;5144421;27;20501;-70
2023/07/10 00:18:53;;;;;;;5.68;4.32;;;;;;;;;;5144346;27;20359;-70
2023/07/10 00:21:19;;;;;;;5.57;4.10;;;;;;;;;;5144096;27;20201;-70
2023/07/10 00:23:47;;;;;;;7.13;4.20;;;;;;;;;;5143774;27;20224;-70
2023/07/10 00:26:15;;;;;;;7.47;3.92;;;;;;;;;;5144431;27;20194;-70
2023/07/10 00:28:42;;;;;;;5.78;4.25;;;;;;;;;;5144116;27;20237;-70
2023/07/10 00:31:08;;;;;;;8.50;4.25;;;;;;;;;;5144034;27;20221;-70
2023/07/10 00:33:35;;;;;;;6.35;4.28;;;;;;;;;;5143662;27;20270;-70
2023/07/10 00:36:01;;;;;;;5.70;3.92;;;;;;;;;;5143923;27;20198;-70
2023/07/10 00:38:29;;;;;;;4.30;3.90;;;;;;;;;;5144061;27;20193;-70
2023/07/10 00:40:57;;;;;;;5.93;4.43;;;;;;;;;;5144000;27;20198;-70
2023/07/10 00:43:27;;;;;;;7.40;4.30;;;;;;;;;;5143675;27;20544;-70
2023/07/10 00:45:53;;;;;;;7.78;4.43;;;;;;;;;;5143888;27;20194;-70
2023/07/10 00:48:27;;;;;;;6.10;4.32;;;;;;;;;;5143544;27;20208;-70
2023/07/10 00:50:54;;;;;;;7.10;4.30;;;;;;;;;;5143925;27;20424;-70
2023/07/10 00:53:24;;;;;;;5.50;4.38;;;;;;;;;;5143492;27;20189;-70
2023/07/10 00:55:51;;;;;;;4.50;4.15;;;;;;;;;;5143979;27;20208;-70
2023/07/10 00:58:22;;;;;;;6.72;4.07;;;;;;;;;;5143555;27;20386;-70
2023/07/10 01:01:05;;;;;;;6.80;4.25;;;;;;;;;;5143432;27;20217;-70
2023/07/10 01:03:31;;;;;;;6.82;4.78;;;;;;;;;;5143448;27;20213;-70
2023/07/10 01:05:59;;;;;;;4.28;3.80;;;;;;;;;;5143481;27;20360;-70
2023/07/10 01:08:26;;;;;;;4.90;4.40;;;;;;;;;;5143553;27;20385;-71
2023/07/10 01:10:52;;;;;;;4.80;4.00;;;;;;;;;;5143456;27;20194;-70
2023/07/10 01:13:20;;;;;;;6.75;4.55;;;;;;;;;;5142346;27;20404;-70
2023/07/10 01:15:46;;;;;;;7.00;4.43;;;;;;;;;;5143477;27;20201;-70
2023/07/10 01:18:14;;;;;;;7.00;4.55;;;;;;;;;;5143418;27;20201;-70
2023/07/10 01:20:41;;;;;;;7.93;4.78;;;;;;;;;;5143261;27;20450;-70
2023/07/10 01:23:08;;;;;;;6.00;4.00;;;;;;;;;;5143091;27;20214;-70
2023/07/10 01:25:38;;;;;;;9.45;4.47;;;;;;;;;;5142766;27;20216;-70
2023/07/10 01:28:09;;;;;;;5.18;4.32;;;;;;;;;;5143209;27;20564;-70
2023/07/10 01:30:37;;;;;;;6.50;4.13;;;;;;;;;;5143118;27;20197;-70
2023/07/10 01:33:04;;;;;;;6.82;4.00;;;;;;;;;;5142937;27;20197;-70
2023/07/10 01:35:32;;;;;;;4.57;3.90;;;;;;;;;;5142868;27;20251;-70
2023/07/10 01:37:58;;;;;;;5.45;4.05;;;;;;;;;;5143237;27;20529;-70
2023/07/10 01:40:29;;;;;;;5.57;3.92;;;;;;;;;;5143204;27;20393;-71
2023/07/10 01:42:56;;;;;;;5.57;4.15;;;;;;;;;;5142787;27;20213;-70
2023/07/10 01:45:23;;;;;;;7.72;4.28;;;;;;;;;;5142823;27;20194;-70
2023/07/10 01:47:52;;;;;;;5.38;4.22;;;;;;;;;;5142777;27;20194;-71
2023/07/10 01:50:19;;;;;;;7.05;4.53;;;;;;;;;;5143101;27;20239;-71
2023/07/10 01:52:46;;;;;;;7.70;4.28;;;;;;;;;;5142873;27;20200;-71
2023/07/10 01:55:13;;;;;;;8.10;4.50;;;;;;;;;;5143002;27;20201;-70
2023/07/10 01:57:41;;;;;;;8.70;4.55;;;;;;;;;;5142779;27;20200;-70
2023/07/10 02:00:09;;;;;;;4.75;4.32;;;;;;;;;;5142762;27;20201;-70
2023/07/10 02:02:35;;;;;;;7.97;4.93;;;;;;;;;;5142444;27;20198;-70
2023/07/10 02:05:01;;;;;;;5.88;4.50;;;;;;;;;;5142826;27;20590;-70
2023/07/10 02:07:27;;;;;;;6.72;4.20;;;;;;;;;;5142848;27;20194;-70
2023/07/10 02:09:54;;;;;;;4.45;4.07;;;;;;;;;;5142924;27;20489;-70
2023/07/10 02:12:20;;;;;;;7.80;4.32;;;;;;;;;;5142879;27;20481;-70
2023/07/10 02:14:47;;;;;;;5.75;4.28;;;;;;;;;;5142792;27;20186;-70
2023/07/10 02:17:14;;;;;;;6.22;4.97;;;;;;;;;;5142622;27;20212;-71
2023/07/10 02:19:40;;;;;;;8.07;4.93;;;;;;;;;;5142859;27;20218;-70
2023/07/10 02:22:06;;;;;;;8.90;5.20;;;;;;;;;;5142440;27;20194;-70
2023/07/10 02:24:33;;;;;;;5.75;4.35;;;;;;;;;;5145606;27;20218;-70
2023/07/10 02:26:59;;;;;;;7.40;5.03;;;;;;;;;;5146355;27;20202;-70
2023/07/10 02:29:25;;;;;;;8.00;4.50;;;;;;;;;;5146345;27;20547;-70
2023/07/10 02:31:53;;;;;;;5.07;4.50;;;;;;;;;;5146167;27;20194;-70
2023/07/10 02:34:19;;;;;;;4.93;4.43;;;;;;;;;;5146366;27;20213;-70
2023/07/10 02:36:45;;;;;;;9.50;4.97;;;;;;;;;;5146181;27;20194;-70
2023/07/10 02:39:12;;;;;;;10.20;4.78;;;;;;;;;;5146293;27;20205;-69
2023/07/10 02:41:38;;;;;;;5.72;4.03;;;;;;;;;;5145976;27;20277;-70
2023/07/10 02:44:04;;;;;;;5.03;4.47;;;;;;;;;;5146022;27;20213;-70
2023/07/10 02:46:31;;;;;;;8.30;4.72;;;;;;;;;;5146028;27;20265;-70
2023/07/10 02:48:59;;;;;;;5.45;4.43;;;;;;;;;;5146352;27;20379;-70
2023/07/10 02:51:26;;;;;;;6.07;4.70;;;;;;;;;;5146013;27;20190;-70
2023/07/10 02:53:52;;;;;;;5.32;4.80;;;;;;;;;;5145917;27;20198;-70
2023/07/10 02:56:18;;;;;;;6.40;4.00;;;;;;;;;;5145902;27;20291;-70
2023/07/10 02:58:48;;;;;;;6.97;4.07;;;;;;;;;;5145856;27;20385;-69
2023/07/10 03:01:15;;;;;;;10.40;4.65;;;;;;;;;;5145720;27;20202;-69
2023/07/10 03:03:45;;;;;;;6.40;4.13;;;;;;;;;;5145666;27;20222;-71
2023/07/10 03:06:13;;;;;;;8.07;4.85;;;;;;;;;;5145799;27;20182;-70
2023/07/10 03:08:40;;;;;;;8.90;4.30;;;;;;;;;;5145818;27;20198;-70
2023/07/10 03:11:07;;;;;;;7.90;5.05;;;;;;;;;;5145606;27;20411;-69
2023/07/10 03:13:34;;;;;;;9.45;4.63;;;;;;;;;;5145456;27;20194;-69
2023/07/10 03:16:01;;;;;;;5.85;4.63;;;;;;;;;;5145512;27;20202;-69
2023/07/10 03:18:28;;;;;;;10.75;4.90;;;;;;;;;;5145562;27;20204;-69
2023/07/10 03:20:54;;;;;;;11.88;5.13;;;;;;;;;;5145584;27;20512;-70
2023/07/10 03:23:22;;;;;;;6.88;4.90;;;;;;;;;;5145236;27;20185;-70
2023/07/10 03:25:48;;;;;;;7.28;4.53;;;;;;;;;;5145148;27;20194;-69
2023/07/10 03:28:15;;;;;;;9.95;4.72;;;;;;;;;;5145316;27;20214;-70
2023/07/10 03:30:41;;;;;;;10.75;5.32;;;;;;;;;;5145265;27;20446;-70
2023/07/10 03:33:07;;;;;;;6.60;4.35;;;;;;;;;;5145058;27;20200;-70
2023/07/10 03:35:34;;;;;;;7.20;4.93;;;;;;;;;;5144413;27;20194;-69
2023/07/10 03:38:00;;;;;;;7.78;4.60;;;;;;;;;;5145111;27;20205;-69
2023/07/10 03:40:27;;;;;;;9.60;4.78;;;;;;;;;;5145021;27;20230;-69
2023/07/10 03:42:54;;;;;;;5.55;4.85;;;;;;;;;;5144852;27;20505;-69
2023/07/10 03:45:20;;;;;;;6.50;4.82;;;;;;;;;;5145007;27;20218;-69
2023/07/10 03:47:46;;;;;;;9.75;4.85;;;;;;;;;;5144888;27;20281;-69
2023/07/10 03:50:13;;;;;;;13.93;5.38;;;;;;;;;;5144992;27;20198;-69
2023/07/10 03:52:39;;;;;;;13.23;5.13;;;;;;;;;;5144753;27;20382;-69
2023/07/10 03:55:06;;;;;;;6.57;5.00;;;;;;;;;;5144903;27;20205;-69
2023/07/10 03:57:33;;;;;;;11.68;5.03;;;;;;;;;;5144938;27;20501;-70
2023/07/10 04:00:00;;;;;;;6.40;4.80;;;;;;;;;;5144545;27;20205;-69
2023/07/10 04:02:26;;;;;;;12.63;5.03;;;;;;;;;;5144551;27;20202;-69
2023/07/10 04:04:52;;;;;;;8.00;5.00;;;;;;;;;;5144379;27;20220;-69
2023/07/10 04:07:18;;;;;;;6.35;5.03;;;;;;;;;;5144660;27;20518;-69
2023/07/10 04:09:45;;;;;;;8.25;4.78;;;;;;;;;;5144373;27;20391;-69
2023/07/10 04:12:11;;;;;;;8.98;5.15;;;;;;;;;;5144145;27;20385;-69
2023/07/10 04:14:39;;;;;;;9.70;5.22;;;;;;;;;;5144416;27;20198;-69
2023/07/10 04:17:05;;;;;;;8.93;4.95;;;;;;;;;;5144291;27;20201;-71
2023/07/10 04:19:32;;;;;;;8.60;5.28;;;;;;;;;;5144427;27;20378;-71
2023/07/10 04:21:58;;;;;;;8.77;5.32;;;;;;;;;;5144542;27;20201;-71
2023/07/10 04:24:24;;;;;;;7.68;4.75;;;;;;;;;;5144313;27;20220;-71
2023/07/10 04:26:51;;;;;;;6.85;4.97;;;;;;;;;;5144382;27;20494;-71
2023/07/10 04:29:18;;;;;;;6.25;4.65;;;;;;;;;;5144326;27;20201;-71
2023/07/10 04:31:46;;;;;;;9.48;5.15;;;;;;;;;;5144111;27;20494;-71
2023/07/10 04:34:12;;;;;;;7.28;5.25;;;;;;;;;;5144084;27;20204;-71
2023/07/10 04:36:38;;;;;;;9.70;4.65;;;;;;;;;;5143930;27;20201;-72
2023/07/10 04:39:05;;;;;;;7.82;4.90;;;;;;;;;;5144038;27;20260;-72
2023/07/10 04:41:31;;;;;;;6.80;4.22;;;;;;;;;;5144130;27;20199;-72
2023/07/10 04:43:57;;;;;;;5.85;4.68;;;;;;;;;;5143957;27;20466;-72
2023/07/10 04:46:24;;;;;;;5.97;4.88;;;;;;;;;;5144384;27;20200;-72
2023/07/10 04:48:51;;;;;;;6.50;5.18;;;;;;;;;;5143996;27;20201;-72
2023/07/10 04:51:18;;;;;;;9.40;4.90;;;;;;;;;;5143867;27;20193;-72
2023/07/10 04:53:45;;;;;;;8.30;4.70;;;;;;;;;;5143666;27;20193;-72
2023/07/10 04:56:11;;;;;;;11.50;5.38;;;;;;;;;;5143848;27;20210;-71
2023/07/10 04:58:51;;;;;;;10.80;5.00;;;;;;;;;;5143867;27;20260;-71
2023/07/10 05:01:18;;;;;;;11.45;5.22;;;;;;;;;;5143636;27;20392;-71
2023/07/10 05:03:44;;;;;;;9.40;5.25;;;;;;;;;;5143716;27;20198;-71
2023/07/10 05:06:12;;;;;;;10.15;5.25;;;;;;;;;;5143772;27;20529;-71
2023/07/10 05:08:38;;;;;;;8.10;4.70;;;;;;;;;;5143490;27;20193;-72
2023/07/10 05:11:04;;;;;;;11.65;5.38;;;;;;;;;;5144121;27;20193;-72
2023/07/10 05:13:31;;;;;;;6.60;4.97;;;;;;;;;;5143744;27;20200;-72
2023/07/10 05:15:58;;;;;;;4.80;4.40;;;;;;;;;;5143542;27;20200;-72
2023/07/10 05:18:25;;;;;;;7.68;4.72;;;;;;;;;;5143191;27;20197;-72
2023/07/10 05:20:52;;;;;;;5.50;4.63;;;;;;;;;;5143378;27;20264;-72
2023/07/10 05:23:20;;;;;;;11.52;5.65;;;;;;;;;;5143005;27;20197;-72
2023/07/10 05:25:56;;;;;;;12.43;5.57;;;;;;;;;;5143256;27;20222;-71
2023/07/10 05:28:22;;;;;;;9.07;4.55;;;;;;;;;;5142998;27;20218;-71
2023/07/10 05:30:49;;;;;;;7.65;4.60;;;;;;;;;;5143204;27;20516;-72
2023/07/10 05:33:15;;;;;;;4.65;4.00;;;;;;;;;;5142989;27;20206;-71
2023/07/10 05:35:48;;;;;;;6.97;4.30;;;;;;;;;;5143352;27;20539;-71
2023/07/10 05:38:14;;;;;;;9.10;4.65;;;;;;;;;;5143572;27;20245;-71
2023/07/10 05:40:42;;;;;;;9.35;4.70;;;;;;;;;;5143324;27;20193;-71
2023/07/10 05:43:09;;;;;;;8.85;5.40;;;;;;;;;;5143036;27;20424;-71
2023/07/10 05:45:35;;;;;;;10.85;5.20;;;;;;;;;;5142922;27;20564;-71
2023/07/10 05:48:01;;;;;;;14.57;5.38;;;;;;;;;;5143191;27;20262;-71
2023/07/10 05:50:27;;;;;;;10.70;5.88;;;;;;;;;;5143321;27;20198;-71
2023/07/10 05:52:54;;;;;;;9.88;5.72;;;;;;;;;;5143058;27;20194;-71
2023/07/10 05:55:20;;;;;;;12.68;4.90;;;;;;;;;;5143042;27;20190;-58
2023/07/10 05:57:47;;;;;;;10.35;4.97;;;;;;;;;;5143167;27;20202;-57
2023/07/10 06:00:14;;;;;;;6.85;4.22;;;;;;;;;;5146899;27;20205;-58
2023/07/10 06:02:41;;;;;;;9.00;5.03;;;;;;;;;;5147069;27;20194;-58
2023/07/10 06:05:07;;;;;;;8.05;4.88;;;;;;;;;;5146932;27;20224;-58
2023/07/10 06:07:34;;;;;;;10.38;4.75;;;;;;;;;;5146995;27;20198;-58
2023/07/10 06:10:00;;;;;;;7.45;4.70;;;;;;;;;;5134988;27;20213;-57
2023/07/10 06:12:26;;;;;;;14.40;4.63;;;;;;;;;;5133735;27;20210;-57
2023/07/10 06:14:54;;;;;;;6.95;4.47;;;;;;;;;;5142016;27;20208;-58
2023/07/10 06:17:20;;;;;;;9.55;4.05;;;;;;;;;;5142173;27;20213;-57
2023/07/10 06:19:46;;;;;;;4.80;4.43;;;;;;;;;;5141912;27;20206;-57
2023/07/10 06:22:13;;;;;;;6.95;4.20;;;;;;;;;;5139846;27;20423;-58
2023/07/10 06:24:39;;;;;;;6.07;4.55;;;;;;;;;;5137767;27;20285;-58
2023/07/10 06:27:06;;;;;;;8.02;4.68;;;;;;;;;;5137774;27;20286;-58
2023/07/10 06:29:34;;;;;;;8.95;5.10;;;;;;;;;;5138410;27;20206;-58
2023/07/10 06:32:01;;;;;;;7.07;4.72;;;;;;;;;;5138146;27;20206;-58
2023/07/10 06:34:28;;;;;;;5.72;4.55;;;;;;;;;;5138418;27;20513;-57
2023/07/10 06:36:55;;;;;;;7.97;4.93;;;;;;;;;;5137765;27;20405;-58
2023/07/10 06:39:21;;;;;;;7.93;4.60;;;;;;;;;;5137814;27;20210;-57
2023/07/10 06:41:47;;;;;;;7.43;5.25;;;;;;;;;;5138387;27;20540;-57
2023/07/10 06:44:13;;;;;;;9.43;4.32;;;;;;;;;;5138656;27;20529;-55
2023/07/10 06:46:40;;;;;;;11.77;5.05;;;;;;;;;;5139324;27;20210;-57
2023/07/10 06:49:07;;;;;;;7.38;4.22;;;;;;;;;;5139782;27;20237;-57
2023/07/10 06:51:35;;;;;;;11.30;4.80;;;;;;;;;;5139449;27;20217;-58
2023/07/10 06:54:02;;;;;;;9.50;4.38;;;;;;;;;;5139597;27;20235;-57
2023/07/10 06:56:29;;;;;;;7.05;4.45;;;;;;;;;;5139456;27;20205;-57
2023/07/10 06:58:56;;;;;;;9.73;5.13;;;;;;;;;;5138986;27;20214;-57
2023/07/10 07:01:22;;;;;;;9.25;4.25;;;;;;;;;;5139024;27;20209;-56
2023/07/10 07:03:48;;;;;;;11.02;4.72;;;;;;;;;;5139473;27;20230;-56
2023/07/10 07:06:16;;;;;;;5.70;5.10;;;;;;;;;;5139951;27;20217;-56
2023/07/10 07:08:46;;;;;;;7.63;4.63;;;;;;;;;;5139881;27;20217;-57
2023/07/10 07:11:12;;;;;;;6.55;4.55;;;;;;;;;;5138617;27;20233;-56
2023/07/10 07:13:39;;;;;;;6.90;5.00;;;;;;;;;;5139199;27;20210;-57
2023/07/10 07:16:05;;;;;;;8.52;4.63;;;;;;;;;;5139432;27;20528;-58
2023/07/10 07:18:32;;;;;;;8.48;5.13;;;;;;;;;;5139897;27;20198;-58
2023/07/10 07:20:58;;;;;;;6.60;4.60;;;;;;;;;;5138917;27;20582;-57
2023/07/10 07:23:26;;;;;;;10.57;5.05;;;;;;;;;;5131141;27;20281;-58
2023/07/10 07:25:53;;;;;;;12.77;5.10;;;;;;;;;;5138724;27;20434;-56
2023/07/10 07:28:19;;;;;;;9.63;4.70;;;;;;;;;;5139004;27;20248;-57
2023/07/10 07:30:48;;;;;;;9.75;4.72;;;;;;;;;;5138730;27;20209;-56
2023/07/10 07:33:14;;;;;;;12.02;5.07;;;;;;;;;;5139187;27;20658;-57
2023/07/10 07:35:40;;;;;;;8.13;4.60;;;;;;;;;;5138603;27;20548;-57
2023/07/10 07:38:07;;;;;;;8.05;4.88;;;;;;;;;;5139217;27;20222;-57
2023/07/10 07:40:35;;;;;;;11.07;4.57;;;;;;;;;;5138689;27;20210;-57
2023/07/10 07:43:01;;;;;;;14.40;4.70;;;;;;;;;;5138561;27;20214;-57
2023/07/10 07:45:28;;;;;;;11.05;4.28;;;;;;;;;;5138277;27;20233;-57
2023/07/10 07:47:54;;;;;;;10.82;4.80;;;;;;;;;;5138864;27;20202;-56
2023/07/10 07:50:20;;;;;;;8.93;4.60;;;;;;;;;;5138507;27;20214;-57
2023/07/10 07:52:47;;;;;;;10.52;5.40;;;;;;;;;;5138104;27;20445;-57
2023/07/10 07:55:13;;;;;;;8.00;4.63;;;;;;;;;;5129209;27;20209;-56
2023/07/10 07:57:40;;;;;;;6.80;4.75;;;;;;;;;;5138546;27;20334;-57
2023/07/10 08:00:08;;;;;;;8.50;4.70;;;;;;;;;;5138206;27;20233;-56
2023/07/10 08:02:34;;;;;;;9.60;4.78;;;;;;;;;;5138387;27;20321;-56
2023/07/10 08:05:01;;;;;;;6.70;4.65;;;;;;;;;;5138282;27;20221;-57
2023/07/10 08:07:28;;;;;;;5.57;4.28;;;;;;;;;;5137697;27;20576;-57
2023/07/10 08:09:54;;;;;;;9.13;4.20;;;;;;;;;;5137576;27;20209;-56
2023/07/10 08:12:20;;;;;;;11.85;4.97;;;;;;;;;;5137820;27;20209;-56
2023/07/10 08:14:48;;;;;;;4.45;4.05;;;;;;;;;;5137060;27;20216;-56
2023/07/10 08:17:14;;;;;;;4.75;4.32;;;;;;;;;;5137554;27;20214;-57
2023/07/10 08:19:40;;;;;;;5.82;4.32;;;;;;;;;;5137930;27;20214;-57
2023/07/10 08:22:07;;;;;;;7.25;4.30;;;;;;;;;;5137546;27;20517;-57
2023/07/10 08:24:33;;;;;;;8.20;4.20;;;;;;;;;;5137664;27;20267;-57
2023/07/10 08:26:59;;;;;;;9.95;4.32;;;;;;;;;;5137975;27;20230;-58
2023/07/10 08:29:26;;;;;;;6.65;4.43;;;;;;;;;;5138603;27;20281;-57
2023/07/10 08:31:54;;;;;;;6.72;4.18;;;;;;;;;;5137434;27;20377;-58
2023/07/10 08:34:21;;;;;;;7.70;4.22;;;;;;;;;;5137848;27;20209;-57
2023/07/10 08:36:47;;;;;;;6.68;4.00;;;;;;;;;;5138045;27;20514;-57
2023/07/10 08:39:14;;;;;;;5.80;4.18;;;;;;;;;;5137116;27;20216;-56
2023/07/10 08:41:41;;;;;;;6.05;4.07;;;;;;;;;;5137498;27;20282;-56
2023/07/10 08:44:08;;;;;;;4.40;3.95;;;;;;;;;;5137302;27;20216;-55
2023/07/10 08:46:34;;;;;;;6.90;4.35;;;;;;;;;;5137134;27;20649;-56
2023/07/10 08:49:04;;;;;;;8.35;4.60;;;;;;;;;;5137845;27;20213;-56
2023/07/10 08:51:35;;;;;;;8.10;3.90;;;;;;;;;;5137741;27;20210;-57
2023/07/10 08:54:02;;;;;;;6.53;3.95;;;;;;;;;;5137566;27;20401;-56
2023/07/10 08:56:33;;;;;;;5.95;4.00;;;;;;;;;;5137119;27;20206;-56
2023/07/10 08:59:01;;;;;;;5.43;4.03;;;;;;;;;;5137199;27;20210;-55
2023/07/10 09:01:30;;;;;;;5.28;3.85;;;;;;;;;;5137663;27;20214;-56
2023/07/10 09:03:59;;;;;;;4.85;3.92;;;;;;;;;;5137185;27;20214;-56
2023/07/10 09:06:32;;;;;;;8.60;3.88;;;;;;;;;;5137670;27;20228;-56
2023/07/10 09:08:58;;;;;;;5.50;4.00;;;;;;;;;;5137143;27;20226;-56
2023/07/10 09:11:25;;;;;;;6.35;3.85;;;;;;;;;;5136902;27;20556;-57
2023/07/10 09:13:55;;;;;;;9.43;4.28;;;;;;;;;;5136682;27;20427;-56
2023/07/10 09:16:22;;;;;;;7.75;4.38;;;;;;;;;;5137581;27;20209;-57
2023/07/10 09:18:50;;;;;;;9.35;4.25;;;;;;;;;;5138002;27;20237;-56
2023/07/10 09:21:18;;;;;;;7.10;4.25;;;;;;;;;;5137911;27;20244;-56
2023/07/10 09:23:46;;;;;;;4.90;4.45;;;;;;;;;;5137317;27;20214;-57
2023/07/10 09:26:14;;;;;;;8.25;4.65;;;;;;;;;;5136808;27;20221;-56
2023/07/10 09:28:42;;;;;;;6.65;4.07;;;;;;;;;;5137277;27;20226;-56
2023/07/10 09:31:13;;;;;;;6.78;4.75;;;;;;;;;;5136423;27;20247;-56
2023/07/10 09:33:42;;;;;;;5.55;4.35;;;;;;;;;;5136493;27;20201;-56
2023/07/10 09:36:12;;;;;;;6.97;4.20;;;;;;;;;;5136432;27;20510;-56
2023/07/10 09:38:42;;;;;;;7.50;4.15;;;;;;;;;;5137066;27;20214;-57
2023/07/10 09:41:12;;;;;;;5.28;4.38;;;;;;;;;;5137469;27;20210;-57
2023/07/10 09:43:39;;;;;;;7.18;4.20;;;;;;;;;;5137042;27;20227;-58
2023/07/10 09:46:05;;;;;;;7.65;3.92;;;;;;;;;;5136430;27;20225;-59
2023/07/10 09:48:33;;;;;;;9.98;4.40;;;;;;;;;;5136856;27;20201;-58
2023/07/10 09:51:01;;;;;;;5.22;4.60;;;;;;;;;;5137015;27;20210;-58
2023/07/10 09:53:30;;;;;;;5.97;4.80;;;;;;;;;;5136484;27;20517;-59
2023/07/10 09:55:56;;;;;;;8.48;4.07;;;;;;;;;;5136700;27;20213;-59
2023/07/10 09:58:24;;;;;;;6.70;4.32;;;;;;;;;;5136973;27;20220;-58
2023/07/10 10:00:50;;;;;;;5.45;4.22;;;;;;;;;;5136546;27;20223;-58
2023/07/10 10:03:19;;;;;;;11.77;4.50;;;;;;;;;;5136529;27;20209;-59
2023/07/10 10:05:49;;;;;;;7.85;4.32;;;;;;;;;;5136319;27;20608;-59
2023/07/10 10:08:19;;;;;;;8.10;4.35;;;;;;;;;;5137068;27;20225;-59
2023/07/10 10:10:46;;;;;;;6.70;3.88;;;;;;;;;;5135832;27;20521;-60
2023/07/10 10:13:16;;;;;;;5.40;4.40;;;;;;;;;;5136546;27;20536;-60
2023/07/10 10:15:47;;;;;;;8.82;4.63;;;;;;;;;;5136425;27;20236;-60
2023/07/10 10:18:18;;;;;;;4.70;4.35;;;;;;;;;;5136517;27;20210;-60
2023/07/10 10:20:45;;;;;;;10.43;4.53;;;;;;;;;;5136530;27;20210;-59
2023/07/10 10:23:18;;;;;;;6.28;4.43;;;;;;;;;;5135945;27;20221;-59
2023/07/10 10:25:45;;;;;;;10.88;4.68;;;;;;;;;;5136107;27;20225;-59
2023/07/10 10:28:20;;;;;;;6.10;4.38;;;;;;;;;;5136634;27;20399;-60
2023/07/10 10:30:49;;;;;;;6.35;4.40;;;;;;;;;;5136125;27;20460;-72
2023/07/10 10:33:20;;;;;;;7.05;4.03;;;;;;;;;;5136216;27;20536;-72
2023/07/10 10:35:51;;;;;;;7.53;4.45;;;;;;;;;;5136961;27;20206;-73
2023/07/10 10:38:24;;;;;;;5.22;4.05;;;;;;;;;;5136805;27;21152;-73
2023/07/10 10:40:52;;;;;;;6.07;4.13;;;;;;;;;;5136418;27;20382;-73
2023/07/10 10:43:36;;;;;;;4.32;3.92;;;;;;;;;;5135836;27;20216;-73
2023/07/10 10:46:08;;;;;;;4.32;3.88;;;;;;;;;;5140067;27;20221;-73
2023/07/10 10:48:39;;;;;;;7.05;4.68;;;;;;;;;;5140324;27;20259;-73
2023/07/10 10:51:12;;;;;;;6.10;4.07;;;;;;;;;;5140780;27;20213;-73
2023/07/10 10:53:42;;;;;;;4.88;4.25;;;;;;;;;;5139567;27;20214;-73
2023/07/10 10:56:17;;;;;;;5.97;4.68;;;;;;;;;;5139983;27;20286;-73
2023/07/10 10:58:51;;;;;;;10.68;4.85;;;;;;;;;;5139735;27;20213;-73
2023/07/10 11:01:29;;;;;;;5.55;3.78;;;;;;;;;;5139818;27;20206;-73
2023/07/10 11:03:57;;;;;;;7.03;4.40;;;;;;;;;;5140200;27;20467;-73
2023/07/10 11:06:31;;;;;;;6.95;4.47;;;;;;;;;;5140414;27;20232;-72
2023/07/10 11:08:58;;;;;;;11.77;5.05;;;;;;;;;;5139343;27;20210;-72
2023/07/10 11:11:27;;;;;;;8.05;4.65;;;;;;;;;;5139430;27;20210;-72
2023/07/10 11:13:54;;;;;;;9.35;4.70;;;;;;;;;;5139718;27;20225;-72
2023/07/10 11:16:20;;;;;;;8.10;4.80;;;;;;;;;;5139845;27;20452;-73
2023/07/10 11:18:48;;;;;;;5.10;4.65;;;;;;;;;;5139391;27;20220;-73
2023/07/10 11:21:14;;;;;;;7.68;4.97;;;;;;;;;;5139882;27;20201;-73
2023/07/10 11:23:45;;;;;;;9.43;4.55;;;;;;;;;;5139136;27;20362;-73
2023/07/10 11:26:14;;;;;;;4.65;4.10;;;;;;;;;;5139161;27;20222;-72
2023/07/10 11:28:48;;;;;;;5.65;4.60;;;;;;;;;;5139630;27;20395;-73
2023/07/10 11:31:19;;;;;;;4.93;4.38;;;;;;;;;;5139127;27;20236;-73
2023/07/10 11:33:50;;;;;;;5.10;4.60;;;;;;;;;;5138957;27;20217;-73
2023/07/10 11:36:17;;;;;;;6.28;4.20;;;;;;;;;;5139224;27;20210;-73
2023/07/10 11:38:56;;;;;;;6.95;4.80;;;;;;;;;;5139436;27;20205;-73
2023/07/10 11:41:25;;;;;;;7.38;4.68;;;;;;;;;;5138931;27;20210;-73
2023/07/10 11:44:18;;;;;;;5.85;4.28;;;;;;;;;;5138361;27;20219;-73
2023/07/10 11:47:01;;;;;;;5.75;4.45;;;;;;;;;;5136861;27;20267;-73
2023/07/10 11:49:43;;;;;;;5.57;4.30;;;;;;;;;;5138823;27;20230;-73
2023/07/10 11:52:11;;;;;;;6.10;4.32;;;;;;;;;;5139002;27;20426;-73
2023/07/10 11:54:40;;;;;;;6.85;4.47;;;;;;;;;;5138415;27;20277;-73
2023/07/10 11:57:11;;;;;;;4.57;4.18;;;;;;;;;;5137823;27;20206;-73
2023/07/10 11:59:39;;;;;;;5.35;4.10;;;;;;;;;;5138474;27;20224;-73
2023/07/10 12:02:14;;;;;;;4.75;4.13;;;;;;;;;;5138542;27;20206;-73
2023/07/10 12:04:42;;;;;;;8.13;4.60;;;;;;;;;;5138220;27;20217;-73
2023/07/10 12:07:11;;;;;;;6.55;4.78;;;;;;;;;;5139356;27;20225;-72
2023/07/10 12:09:38;;;;;;;11.02;4.47;;;;;;;;;;5138596;27;20420;-72
2023/07/10 12:12:10;;;;;;;9.48;4.15;;;;;;;;;;5138034;27;20227;-72
2023/07/10 12:14:36;;;;;;;7.53;4.50;;;;;;;;;;5137941;27;20258;-72
2023/07/10 12:17:04;;;;;;;5.75;4.28;;;;;;;;;;5138145;27;20526;-72
2023/07/10 12:19:32;;;;;;;6.88;4.78;;;;;;;;;;5138166;27;20210;-73
2023/07/10 12:22:00;;;;;;;11.50;4.70;;;;;;;;;;5137733;27;20224;-73
2023/07/10 12:24:27;;;;;;;6.53;4.10;;;;;;;;;;5138216;27;20213;-73
2023/07/10 12:26:53;;;;;;;4.93;4.45;;;;;;;;;;5137941;27;20229;-73
2023/07/10 12:29:20;;;;;;;5.25;4.15;;;;;;;;;;5138465;27;20214;-73
2023/07/10 12:31:46;;;;;;;4.78;4.32;;;;;;;;;;5137826;27;20210;-73
2023/07/10 12:34:18;;;;;;;7.22;4.68;;;;;;;;;;5137787;27;20409;-73
2023/07/10 12:36:49;;;;;;;7.32;3.97;;;;;;;;;;5138358;27;20216;-73
2023/07/10 12:39:17;;;;;;;4.95;4.28;;;;;;;;;;5138113;27;20205;-73
2023/07/10 12:41:45;;;;;;;6.45;4.10;;;;;;;;;;5137816;27;20242;-73
2023/07/10 12:44:17;;;;;;;4.22;3.70;;;;;;;;;;5137973;27;20232;-73
2023/07/10 12:46:43;;;;;;;5.68;3.90;;;;;;;;;;5137802;27;20230;-74
2023/07/10 12:49:12;;;;;;;3.88;3.58;;;;;;;;;;5138078;27;20210;-73
2023/07/10 12:51:39;;;;;;;4.95;3.65;;;;;;;;;;5137444;27;20269;-73
2023/07/10 12:54:14;;;;;;;4.15;3.40;;;;;;;;;;5137351;27;20210;-72
2023/07/10 12:56:42;;;;;;;4.70;3.75;;;;;;;;;;5137211;27;20509;-73
2023/07/10 12:59:14;;;;;;;3.53;3.33;;;;;;;;;;5137576;27;20399;-72
2023/07/10 13:01:47;;;;;;;6.45;3.40;;;;;;;;;;5137193;27;20217;-72
2023/07/10 13:04:18;;;;;;;3.80;3.47;;;;;;;;;;5137828;27;20209;-73
2023/07/10 13:06:45;;;;;;;5.07;3.60;;;;;;;;;;5137393;27;20229;-72
2023/07/10 13:09:18;;;;;;;4.30;3.45;;;;;;;;;;5136699;27;20210;-73
2023/07/10 13:11:46;;;;;;;5.20;3.78;;;;;;;;;;5137277;27;20209;-73
2023/07/10 13:14:22;;;;;;;4.38;3.92;;;;;;;;;;5123502;27;20210;-73
2023/07/10 13:16:48;;;;;;;5.10;4.15;;;;;;;;;;5137319;27;20213;-72
2023/07/10 13:19:15;;;;;;;4.60;4.20;;;;;;;;;;5137495;27;20255;-73
2023/07/10 13:21:41;;;;;;;4.45;3.38;;;;;;;;;;5137472;27;20209;-73
2023/07/10 13:24:07;;;;;;;5.60;3.33;;;;;;;;;;5137357;27;20214;-73
2023/07/10 13:26:34;;;;;;;4.45;3.70;;;;;;;;;;5137528;27;20245;-72
2023/07/10 13:29:01;;;;;;;4.10;3.83;;;;;;;;;;5137439;27;20229;-73
2023/07/10 13:31:31;;;;;;;4.18;3.70;;;;;;;;;;5137237;27;20213;-72
2023/07/10 13:33:57;;;;;;;4.55;4.05;;;;;;;;;;5136825;27;20247;-73
2023/07/10 13:36:25;;;;;;;3.88;3.58;;;;;;;;;;5137660;27;20214;-72
2023/07/10 13:38:51;;;;;;;4.60;3.70;;;;;;;;;;5138080;27;20216;-72
2023/07/10 13:41:19;;;;;;;6.60;3.35;;;;;;;;;;5137279;27;20202;-72
2023/07/10 13:43:45;;;;;;;7.25;3.22;;;;;;;;;;5137062;27;20210;-73
2023/07/10 13:46:24;;;;;;;4.03;3.65;;;;;;;;;;5137062;27;20213;-73
2023/07/10 13:48:51;;;;;;;5.70;3.50;;;;;;;;;;5137124;27;20486;-73
2023/07/10 13:51:18;;;;;;;7.88;3.50;;;;;;;;;;5137574;27;20213;-73
2023/07/10 13:53:44;;;;;;;6.45;3.88;;;;;;;;;;5136712;27;20416;-73
2023/07/10 13:56:13;;;;;;;6.18;4.13;;;;;;;;;;5136884;27;20505;-72
2023/07/10 13:58:39;;;;;;;5.97;3.75;;;;;;;;;;5137213;27;20216;-72
2023/07/10 14:01:05;;;;;;;3.83;3.53;;;;;;;;;;5136161;27;20225;-72
2023/07/10 14:03:35;;;;;;;4.30;3.50;;;;;;;;;;5136804;27;20214;-73
2023/07/10 14:06:01;;;;;;;9.00;3.60;;;;;;;;;;5136830;27;20212;-73
2023/07/10 14:08:28;;;;;;;3.63;3.42;;;;;;;;;;5136529;27;20229;-73
2023/07/10 14:10:56;;;;;;;4.85;4.20;;;;;;;;;;5136465;27;20213;-73
2023/07/10 14:13:23;;;;;;;3.90;3.35;;;;;;;;;;5136663;27;20536;-73
2023/07/10 14:15:52;;;;;;;3.95;3.63;;;;;;;;;;5136477;27;20216;-73
2023/07/10 14:18:21;;;;;;;5.28;4.15;;;;;;;;;;5136950;27;20209;-71
2023/07/10 14:20:49;;;;;;;3.83;3.63;;;;;;;;;;5140208;27;20398;-72
2023/07/10 14:23:16;;;;;;;5.65;3.78;;;;;;;;;;5139961;27;20240;-72
2023/07/10 14:25:42;;;;;;;6.97;4.22;;;;;;;;;;5141036;27;20518;-72
2023/07/10 14:28:13;;;;;;;3.60;3.33;;;;;;;;;;5140714;27;20234;-72
2023/07/10 14:30:39;;;;;;;10.32;4.03;;;;;;;;;;5141180;27;20205;-72
2023/07/10 14:33:07;;;;;;;6.30;4.18;;;;;;;;;;5140201;27;20202;-72
2023/07/10 14:35:33;;;;;;;4.05;3.75;;;;;;;;;;5140852;27;20209;-71
2023/07/10 14:38:01;;;;;;;3.88;3.58;;;;;;;;;;5140626;27;20212;-71
2023/07/10 14:40:27;;;;;;;5.00;3.60;;;;;;;;;;5139908;27;20248;-71
2023/07/10 14:42:53;;;;;;;3.88;3.47;;;;;;;;;;5140160;27;20235;-71
2023/07/10 14:45:19;;;;;;;4.25;3.85;;;;;;;;;;5140298;27;20209;-72